createdAt,value
2023-09-23T00:00:36.986Z,62.08
2023-09-23T00:03:29.155Z,62.10
2023-09-23T00:06:01.776Z,62.23
2023-09-23T00:08:38.748Z,62.29
2023-09-23T00:11:11.971Z,62.45
2023-09-23T00:13:44.595Z,62.61
2023-09-23T00:16:17.525Z,62.51
2023-09-23T00:18:50.010Z,62.71
2023-09-23T00:21:22.923Z,62.83
2023-09-23T00:23:56.628Z,62.65
2023-09-23T00:26:29.727Z,62.76
2023-09-23T00:29:02.188Z,62.75
2023-09-23T00:31:38.419Z,62.86
2023-09-23T00:34:10.617Z,63.18
2023-09-23T00:36:42.907Z,63.26
2023-09-23T00:39:18.992Z,63.37
2023-09-23T00:41:51.652Z,63.19
2023-09-23T00:44:23.937Z,63.45
2023-09-23T00:46:57.671Z,63.38
2023-09-23T00:49:31.542Z,63.59
2023-09-23T00:52:07.276Z,63.55
2023-09-23T00:54:42.129Z,63.53
2023-09-23T00:57:18.588Z,63.59
2023-09-23T00:59:51.123Z,63.47
2023-09-23T01:02:25.014Z,63.54
2023-09-23T01:04:57.352Z,63.85
2023-09-23T01:07:32.781Z,63.85
2023-09-23T01:10:05.912Z,63.97
2023-09-23T01:12:40.724Z,63.98
2023-09-23T01:15:14.230Z,64.11
2023-09-23T01:17:51.186Z,64.06
2023-09-23T01:20:24.710Z,64.09
2023-09-23T01:23:00.494Z,64.13
2023-09-23T01:25:39.650Z,64.11
2023-09-23T01:28:16.095Z,64.15
2023-09-23T01:30:48.690Z,64.17
2023-09-23T01:33:21.062Z,64.09
2023-09-23T01:35:56.941Z,64.07
2023-09-23T01:38:29.221Z,64.10
2023-09-23T01:41:03.376Z,64.18
2023-09-23T01:43:37.008Z,64.38
2023-09-23T01:46:09.925Z,64.49
2023-09-23T01:48:42.178Z,64.34
2023-09-23T01:51:17.938Z,64.18
2023-09-23T01:53:50.153Z,64.13
2023-09-23T01:56:22.465Z,64.21
2023-09-23T01:58:54.453Z,64.29
2023-09-23T02:01:27.804Z,64.31
2023-09-23T02:04:01.048Z,64.42
2023-09-23T02:06:39.003Z,64.46
2023-09-23T02:09:11.508Z,64.56
2023-09-23T02:11:44.138Z,64.32
2023-09-23T02:14:17.042Z,64.31
2023-09-23T02:16:49.610Z,64.16
2023-09-23T02:19:23.447Z,64.36
2023-09-23T02:21:56.176Z,64.50
2023-09-23T02:24:28.859Z,64.69
2023-09-23T02:27:01.319Z,64.90
2023-09-23T02:29:34.497Z,64.82
2023-09-23T02:32:08.183Z,64.94
2023-09-23T02:34:41.353Z,65.11
2023-09-23T02:37:14.283Z,65.04
2023-09-23T02:39:46.920Z,64.98
2023-09-23T02:42:19.626Z,64.98
2023-09-23T02:44:51.708Z,64.96
2023-09-23T02:47:24.153Z,65.02
2023-09-23T02:49:56.835Z,65.06
2023-09-23T02:52:30.549Z,65.03
2023-09-23T02:55:02.879Z,65.02
2023-09-23T02:57:39.266Z,65.28
2023-09-23T03:00:19.888Z,65.18
2023-09-23T03:02:57.105Z,65.28
2023-09-23T03:05:33.024Z,65.33
2023-09-23T03:08:15.317Z,65.43
2023-09-23T03:10:48.407Z,65.56
2023-09-23T03:13:25.077Z,65.27
2023-09-23T03:16:07.728Z,65.45
2023-09-23T03:18:56.318Z,65.49
2023-09-23T03:21:29.979Z,65.46
2023-09-23T03:24:03.433Z,65.46
2023-09-23T03:26:35.631Z,65.43
2023-09-23T03:29:09.777Z,65.41
2023-09-23T03:31:42.260Z,65.46
2023-09-23T03:34:15.738Z,65.40
2023-09-23T03:36:48.243Z,65.45
2023-09-23T03:39:20.634Z,65.43
2023-09-23T03:41:53.597Z,65.59
2023-09-23T03:44:25.985Z,65.48
2023-09-23T03:47:08.808Z,65.25
2023-09-23T03:49:45.102Z,65.05
2023-09-23T03:52:17.485Z,65.52
2023-09-23T03:54:50.390Z,65.51
2023-09-23T03:57:22.708Z,65.71
2023-09-23T03:59:55.077Z,65.54
2023-09-23T04:02:27.419Z,65.29
2023-09-23T04:04:59.982Z,65.61
2023-09-23T04:07:32.419Z,65.77
2023-09-23T04:10:04.849Z,65.83
2023-09-23T04:12:39.015Z,65.77
2023-09-23T04:15:12.556Z,65.82
2023-09-23T04:17:45.533Z,65.89
2023-09-23T04:20:19.477Z,65.90
2023-09-23T04:22:52.098Z,65.82
2023-09-23T04:25:24.619Z,65.87
2023-09-23T04:27:57.222Z,66.04
2023-09-23T04:30:29.614Z,65.91
2023-09-23T04:33:02.672Z,66.06
2023-09-23T04:35:37.082Z,66.07
2023-09-23T04:38:11.484Z,66.03
2023-09-23T04:40:46.843Z,65.96
2023-09-23T04:43:22.863Z,66.21
2023-09-23T04:45:55.348Z,66.21
2023-09-23T04:48:28.185Z,66.09
2023-09-23T04:51:00.771Z,66.12
2023-09-23T04:53:34.708Z,66.13
2023-09-23T04:56:10.386Z,66.24
2023-09-23T04:58:43.569Z,66.28
2023-09-23T05:01:20.295Z,66.20
2023-09-23T05:03:53.793Z,66.12
2023-09-23T05:06:26.516Z,66.20
2023-09-23T05:09:00.414Z,66.12
2023-09-23T05:11:36.520Z,66.11
2023-09-23T05:14:11.750Z,66.06
2023-09-23T05:16:44.959Z,66.24
2023-09-23T05:19:20.648Z,66.24
2023-09-23T05:21:52.908Z,66.30
2023-09-23T05:24:28.229Z,66.14
2023-09-23T05:27:01.400Z,66.31
2023-09-23T05:29:33.924Z,66.34
2023-09-23T05:32:06.243Z,66.31
2023-09-23T05:34:41.171Z,66.35
2023-09-23T05:37:14.019Z,66.47
2023-09-23T05:39:47.556Z,66.42
2023-09-23T05:42:25.315Z,66.51
2023-09-23T05:44:57.849Z,66.51
2023-09-23T05:47:29.853Z,66.60
2023-09-23T05:50:03.241Z,66.50
2023-09-23T05:52:37.771Z,66.44
2023-09-23T05:55:12.392Z,66.57
2023-09-23T05:57:45.260Z,66.62
2023-09-23T06:00:19.187Z,66.66
2023-09-23T06:02:54.453Z,66.71
2023-09-23T06:05:28.543Z,66.59
2023-09-23T06:08:05.277Z,66.70
2023-09-23T06:10:38.277Z,66.87
2023-09-23T06:13:14.747Z,66.85
2023-09-23T06:15:47.364Z,66.83
2023-09-23T06:18:19.978Z,66.75
2023-09-23T06:21:01.815Z,66.75
2023-09-23T06:23:35.398Z,66.92
2023-09-23T06:26:07.809Z,66.90
2023-09-23T06:28:42.570Z,66.79
2023-09-23T06:31:15.177Z,66.96
2023-09-23T06:33:47.606Z,66.94
2023-09-23T06:36:21.653Z,66.95
2023-09-23T06:38:53.919Z,66.90
2023-09-23T06:41:26.092Z,67.05
2023-09-23T06:43:58.260Z,67.04
2023-09-23T06:46:30.637Z,66.88
2023-09-23T06:49:04.315Z,67.08
2023-09-23T06:51:36.767Z,66.93
2023-09-23T06:54:09.032Z,66.88
2023-09-23T06:56:42.178Z,66.88
2023-09-23T06:59:14.447Z,66.68
2023-09-23T07:01:47.058Z,66.82
2023-09-23T07:04:19.346Z,66.83
2023-09-23T07:06:52.151Z,66.73
2023-09-23T07:09:24.126Z,66.78
2023-09-23T07:11:56.472Z,66.77
2023-09-23T07:14:28.722Z,66.90
2023-09-23T07:17:01.706Z,66.93
2023-09-23T07:19:33.916Z,66.88
2023-09-23T07:22:07.134Z,67.01
2023-09-23T07:24:40.704Z,67.06
2023-09-23T07:27:15.859Z,67.11
2023-09-23T07:29:47.828Z,67.02
2023-09-23T07:32:20.064Z,66.93
2023-09-23T07:34:52.251Z,66.89
2023-09-23T07:37:24.547Z,66.96
2023-09-23T07:39:56.701Z,67.17
2023-09-23T07:42:29.199Z,67.06
2023-09-23T07:45:01.285Z,66.97
2023-09-23T07:47:34.196Z,67.21
2023-09-23T07:50:07.220Z,67.15
2023-09-23T07:52:42.256Z,66.96
2023-09-23T07:55:15.333Z,67.15
2023-09-23T07:57:47.755Z,67.21
2023-09-23T08:00:20.478Z,67.08
2023-09-23T08:02:53.369Z,67.18
2023-09-23T08:05:25.826Z,67.18
2023-09-23T08:07:58.246Z,67.26
2023-09-23T08:10:30.653Z,67.21
2023-09-23T08:13:05.274Z,67.11
2023-09-23T08:15:37.527Z,67.06
2023-09-23T08:18:14.702Z,67.22
2023-09-23T08:20:47.222Z,67.25
2023-09-23T08:23:20.199Z,67.24
2023-09-23T08:25:52.529Z,67.22
2023-09-23T08:28:25.486Z,67.21
2023-09-23T08:30:57.872Z,67.15
2023-09-23T08:33:30.202Z,67.17
2023-09-23T08:36:02.601Z,67.36
2023-09-23T08:38:35.798Z,67.42
2023-09-23T08:41:08.513Z,67.31
2023-09-23T08:43:45.337Z,67.36
2023-09-23T08:46:21.020Z,67.38
2023-09-23T08:48:56.248Z,67.50
2023-09-23T08:51:29.000Z,67.51
2023-09-23T08:54:01.919Z,67.40
2023-09-23T08:56:35.540Z,67.46
2023-09-23T08:59:10.598Z,67.44
2023-09-23T09:01:49.012Z,67.45
2023-09-23T09:04:21.070Z,67.43
2023-09-23T09:06:55.115Z,67.29
2023-09-23T09:09:27.859Z,67.32
2023-09-23T09:12:01.020Z,66.92
2023-09-23T09:14:34.657Z,66.95
2023-09-23T09:17:21.149Z,66.93
2023-09-23T09:19:53.563Z,67.01
2023-09-23T09:22:25.806Z,67.00
2023-09-23T09:24:58.137Z,67.05
2023-09-23T09:27:30.282Z,66.82
2023-09-23T09:32:38.385Z,67.03
2023-09-23T09:35:16.340Z,66.84
2023-09-23T09:37:48.201Z,66.80
2023-09-23T09:40:22.620Z,66.62
2023-09-23T09:42:56.673Z,66.73
2023-09-23T09:45:35.682Z,66.79
2023-09-23T09:48:12.661Z,66.77
2023-09-23T09:50:47.375Z,66.72
2023-09-23T09:53:22.800Z,66.87
2023-09-23T09:55:57.655Z,66.69
2023-09-23T09:58:39.662Z,66.77
2023-09-23T10:01:14.872Z,66.89
2023-09-23T10:03:51.983Z,66.76
2023-09-23T10:06:25.309Z,66.64
2023-09-23T10:09:00.800Z,66.63
2023-09-23T10:11:38.034Z,66.70
2023-09-23T10:14:18.377Z,66.79
2023-09-23T10:16:54.338Z,66.76
2023-09-23T10:19:39.794Z,66.76
2023-09-23T10:22:19.484Z,66.80
2023-09-23T10:25:06.074Z,66.81
2023-09-23T10:27:57.769Z,66.52
2023-09-23T10:30:30.590Z,66.57
2023-09-23T10:33:03.331Z,66.68
2023-09-23T10:35:37.603Z,66.68
2023-09-23T10:38:22.050Z,66.82
2023-09-23T10:40:55.702Z,66.81
2023-09-23T10:43:29.002Z,66.66
2023-09-23T10:46:03.521Z,66.49
2023-09-23T10:48:37.288Z,66.76
2023-09-23T10:51:10.235Z,66.84
2023-09-23T10:53:43.828Z,66.82
2023-09-23T10:56:15.892Z,66.80
2023-09-23T10:58:50.629Z,66.74
2023-09-23T11:01:23.440Z,66.76
2023-09-23T11:03:56.370Z,66.82
2023-09-23T11:06:28.874Z,66.79
2023-09-23T11:09:04.933Z,66.81
2023-09-23T11:11:38.905Z,66.91
2023-09-23T11:14:16.453Z,66.72
2023-09-23T11:16:49.860Z,66.65
2023-09-23T11:19:23.164Z,66.74
2023-09-23T11:21:55.613Z,66.89
2023-09-23T11:24:27.929Z,66.95
2023-09-23T11:27:00.097Z,66.73
2023-09-23T11:29:32.432Z,66.83
2023-09-23T11:32:04.757Z,66.63
2023-09-23T11:34:37.889Z,66.61
2023-09-23T11:37:11.604Z,66.70
2023-09-23T11:39:46.453Z,66.75
2023-09-23T11:42:20.652Z,66.78
2023-09-23T11:44:52.839Z,66.71
2023-09-23T11:47:25.773Z,66.68
2023-09-23T11:49:57.844Z,66.76
2023-09-23T11:52:32.380Z,66.67
2023-09-23T11:55:06.175Z,66.62
2023-09-23T11:57:38.656Z,66.56
2023-09-23T12:00:16.503Z,66.44
2023-09-23T12:02:50.058Z,66.66
2023-09-23T12:05:28.431Z,66.60
2023-09-23T12:08:01.854Z,66.50
2023-09-23T12:10:35.065Z,66.56
2023-09-23T12:13:08.559Z,66.76
2023-09-23T12:15:41.802Z,66.69
2023-09-23T12:18:17.756Z,66.86
2023-09-23T12:20:52.162Z,66.68
2023-09-23T12:23:27.218Z,66.71
2023-09-23T12:26:00.017Z,66.82
2023-09-23T12:28:33.302Z,66.89
2023-09-23T12:31:05.643Z,66.70
2023-09-23T12:33:38.203Z,66.61
2023-09-23T12:36:11.108Z,66.69
2023-09-23T12:38:44.238Z,66.52
2023-09-23T12:41:17.332Z,66.52
2023-09-23T12:43:49.536Z,66.56
2023-09-23T12:46:21.951Z,66.85
2023-09-23T12:48:54.230Z,66.66
2023-09-23T12:51:26.608Z,66.54
2023-09-23T12:53:59.203Z,66.69
2023-09-23T12:56:31.386Z,66.77
2023-09-23T12:59:03.791Z,66.95
2023-09-23T13:01:37.038Z,66.75
2023-09-23T13:04:09.456Z,66.97
2023-09-23T13:06:41.679Z,66.92
2023-09-23T13:09:14.000Z,67.12
2023-09-23T13:11:46.215Z,67.17
2023-09-23T13:14:18.881Z,67.10
2023-09-23T13:16:52.500Z,66.97
2023-09-23T13:19:25.019Z,66.87
2023-09-23T13:21:57.144Z,66.83
2023-09-23T13:24:32.668Z,66.89
2023-09-23T13:27:05.448Z,66.84
2023-09-23T13:29:41.545Z,66.69
2023-09-23T13:32:17.778Z,66.73
2023-09-23T13:34:50.172Z,66.64
2023-09-23T13:37:22.514Z,66.75
2023-09-23T13:39:59.176Z,66.74
2023-09-23T13:42:31.553Z,66.81
2023-09-23T13:45:03.800Z,66.79
2023-09-23T13:47:38.644Z,66.83
2023-09-23T13:50:11.657Z,66.78
2023-09-23T13:52:45.082Z,66.77
2023-09-23T13:55:17.160Z,66.76
2023-09-23T13:57:49.378Z,66.87
2023-09-23T14:00:21.668Z,67.09
2023-09-23T14:02:53.716Z,66.92
2023-09-23T14:05:26.100Z,66.69
2023-09-23T14:07:58.440Z,66.82
2023-09-23T14:10:30.676Z,66.92
2023-09-23T14:13:06.159Z,67.02
2023-09-23T14:15:38.798Z,67.04
2023-09-23T14:18:14.152Z,67.00
2023-09-23T14:20:47.170Z,67.26
2023-09-23T14:23:21.745Z,67.40
2023-09-23T14:25:54.004Z,67.37
2023-09-23T14:28:28.346Z,67.44
2023-09-23T14:31:00.462Z,67.55
2023-09-23T14:33:32.740Z,67.50
2023-09-23T14:36:06.412Z,67.50
2023-09-23T14:38:39.275Z,67.39
2023-09-23T14:41:14.375Z,67.19
2023-09-23T14:43:49.433Z,67.24
2023-09-23T14:46:21.954Z,67.16
2023-09-23T14:48:54.294Z,67.11
2023-09-23T14:51:26.505Z,67.17
2023-09-23T14:54:01.977Z,67.06
2023-09-23T14:56:34.535Z,67.00
2023-09-23T14:59:06.851Z,67.11
2023-09-23T15:01:39.974Z,67.02
2023-09-23T15:04:12.886Z,67.14
2023-09-23T15:06:47.398Z,67.17
2023-09-23T15:09:19.649Z,67.09
2023-09-23T15:11:51.770Z,67.28
2023-09-23T15:14:26.658Z,67.34
2023-09-23T15:16:59.193Z,67.22
2023-09-23T15:19:31.628Z,67.54
2023-09-23T15:22:03.973Z,67.55
2023-09-23T15:24:37.380Z,67.56
2023-09-23T15:27:12.619Z,67.84
2023-09-23T15:29:49.046Z,67.91
2023-09-23T15:32:21.664Z,68.04
2023-09-23T15:34:54.716Z,67.72
2023-09-23T15:37:26.944Z,67.82
2023-09-23T15:40:05.434Z,68.10
2023-09-23T15:42:44.376Z,67.94
2023-09-23T15:45:16.769Z,67.96
2023-09-23T15:47:49.481Z,67.63
2023-09-23T15:50:21.711Z,67.79
2023-09-23T15:52:57.473Z,67.70
2023-09-23T15:55:30.154Z,67.64
2023-09-23T15:58:02.625Z,67.83
2023-09-23T16:00:36.135Z,67.80
2023-09-23T16:03:13.963Z,67.61
2023-09-23T16:05:49.474Z,67.69
2023-09-23T16:08:25.359Z,67.74
2023-09-23T16:10:57.382Z,67.89
2023-09-23T16:13:32.506Z,67.70
2023-09-23T16:16:05.279Z,67.43
2023-09-23T16:18:38.106Z,67.67
2023-09-23T16:21:13.016Z,67.79
2023-09-23T16:23:47.434Z,67.74
2023-09-23T16:26:21.210Z,67.55
2023-09-23T16:28:53.513Z,67.66
2023-09-23T16:31:28.902Z,67.87
2023-09-23T16:34:03.448Z,67.94
2023-09-23T16:36:35.997Z,67.63
2023-09-23T16:39:10.988Z,67.72
2023-09-23T16:41:44.890Z,67.78
2023-09-23T16:44:17.108Z,67.81
2023-09-23T16:46:51.399Z,67.93
2023-09-23T16:49:26.116Z,67.78
2023-09-23T16:52:00.063Z,67.82
2023-09-23T16:54:35.204Z,67.91
2023-09-23T16:57:08.839Z,67.88
2023-09-23T16:59:45.037Z,68.08
2023-09-23T17:02:19.056Z,68.38
2023-09-23T17:04:51.538Z,68.20
2023-09-23T17:07:24.241Z,68.04
2023-09-23T17:09:56.973Z,67.90
2023-09-23T17:12:29.147Z,68.01
2023-09-23T17:15:02.679Z,67.97
2023-09-23T17:17:36.391Z,68.08
2023-09-23T17:20:10.915Z,68.02
2023-09-23T17:22:43.073Z,67.97
2023-09-23T17:25:16.191Z,68.13
2023-09-23T17:27:50.884Z,67.92
2023-09-23T17:30:23.878Z,68.07
2023-09-23T17:33:04.529Z,68.32
2023-09-23T17:35:43.510Z,68.04
2023-09-23T17:38:19.074Z,68.11
2023-09-23T17:40:53.951Z,68.17
2023-09-23T17:43:30.691Z,68.27
2023-09-23T17:46:05.719Z,68.14
2023-09-23T17:48:37.964Z,67.98
2023-09-23T17:51:10.367Z,68.38
2023-09-23T17:53:42.517Z,68.32
2023-09-23T17:56:17.677Z,68.58
2023-09-23T17:58:50.405Z,68.37
2023-09-23T18:01:22.880Z,68.53
2023-09-23T18:03:55.695Z,68.51
2023-09-23T18:06:31.204Z,68.20
2023-09-23T18:09:03.770Z,68.20
2023-09-23T18:11:37.363Z,68.23
2023-09-23T18:14:09.828Z,68.16
2023-09-23T18:16:42.029Z,68.32
2023-09-23T18:19:17.231Z,68.69
2023-09-23T18:21:51.105Z,68.77
2023-09-23T18:24:23.414Z,68.90
2023-09-23T18:26:55.827Z,69.03
2023-09-23T18:29:28.449Z,68.73
2023-09-23T18:32:00.702Z,68.88
2023-09-23T18:34:35.685Z,68.57
2023-09-23T18:37:09.108Z,68.76
2023-09-23T18:39:44.428Z,68.66
2023-09-23T18:42:16.753Z,68.73
2023-09-23T18:44:50.121Z,68.81
2023-09-23T18:47:23.003Z,68.92
2023-09-23T18:49:57.228Z,68.99
2023-09-23T18:52:30.579Z,68.90
2023-09-23T18:55:02.964Z,68.84
2023-09-23T18:57:37.805Z,69.08
2023-09-23T19:00:14.266Z,68.74
2023-09-23T19:02:46.685Z,68.81
2023-09-23T19:05:21.818Z,68.87
2023-09-23T19:07:56.566Z,68.91
2023-09-23T19:10:35.749Z,68.80
2023-09-23T19:13:08.345Z,68.93
2023-09-23T19:15:40.484Z,68.71
2023-09-23T19:18:17.098Z,68.70
2023-09-23T19:20:51.099Z,68.81
2023-09-23T19:23:33.374Z,68.71
2023-09-23T19:26:05.844Z,68.87
2023-09-23T19:28:40.099Z,68.67
2023-09-23T19:31:12.392Z,68.87
2023-09-23T19:33:45.672Z,68.84
2023-09-23T19:36:20.167Z,68.93
2023-09-23T19:38:52.490Z,68.87
2023-09-23T19:41:27.431Z,69.00
2023-09-23T19:43:59.564Z,68.93
2023-09-23T19:46:34.756Z,68.72
2023-09-23T19:49:06.986Z,68.86
2023-09-23T19:51:39.467Z,68.97
2023-09-23T19:54:12.236Z,68.97
2023-09-23T19:56:46.493Z,69.00
2023-09-23T19:59:21.080Z,68.86
2023-09-23T20:01:53.986Z,68.95
2023-09-23T20:04:25.899Z,69.02
2023-09-23T20:07:00.051Z,68.93
2023-09-23T20:09:33.820Z,69.04
2023-09-23T20:12:07.826Z,68.86
2023-09-23T20:14:44.170Z,68.95
2023-09-23T20:17:19.605Z,69.00
2023-09-23T20:19:52.346Z,69.12
2023-09-23T20:22:31.136Z,69.02
2023-09-23T20:25:03.522Z,68.81
2023-09-23T20:27:35.803Z,69.04
2023-09-23T20:30:10.334Z,68.81
2023-09-23T20:32:44.478Z,69.01
2023-09-23T20:35:17.046Z,68.91
2023-09-23T20:37:52.750Z,68.91
2023-09-23T20:40:27.074Z,68.92
2023-09-23T20:43:02.313Z,69.10
2023-09-23T20:45:35.193Z,69.00
2023-09-23T20:48:12.109Z,69.12
2023-09-23T20:50:45.224Z,69.15
2023-09-23T20:53:17.911Z,69.17
2023-09-23T20:55:50.647Z,69.08
2023-09-23T20:58:23.558Z,69.12
2023-09-23T21:00:55.692Z,69.15
2023-09-23T21:03:32.698Z,68.67
2023-09-23T21:06:08.127Z,68.80
2023-09-23T21:08:40.864Z,68.65
2023-09-23T21:11:14.023Z,68.68
2023-09-23T21:13:48.023Z,68.93
2023-09-23T21:16:22.375Z,68.67
2023-09-23T21:18:58.975Z,68.71
2023-09-23T21:21:35.801Z,68.68
2023-09-23T21:24:11.442Z,68.89
2023-09-23T21:26:43.740Z,68.73
2023-09-23T21:29:17.119Z,68.86
2023-09-23T21:31:49.619Z,68.99
2023-09-23T21:34:21.976Z,69.21
2023-09-23T21:36:54.184Z,69.02
2023-09-23T21:39:28.360Z,68.74
2023-09-23T21:42:03.069Z,68.98
2023-09-23T21:44:44.937Z,68.79
2023-09-23T21:47:18.109Z,68.58
2023-09-23T21:49:50.995Z,68.84
2023-09-23T21:52:23.157Z,68.66
2023-09-23T21:54:55.617Z,68.84
2023-09-23T21:57:27.754Z,68.90
2023-09-23T22:00:00.554Z,68.92
2023-09-23T22:02:32.977Z,68.71
2023-09-23T22:05:05.949Z,68.82
2023-09-23T22:07:39.412Z,69.15
2023-09-23T22:10:13.299Z,69.20
2023-09-23T22:12:46.169Z,68.96
2023-09-23T22:15:18.607Z,69.05
2023-09-23T22:17:50.997Z,68.78
2023-09-23T22:20:28.537Z,68.68
2023-09-23T22:23:03.264Z,68.90
2023-09-23T22:25:41.192Z,68.87
2023-09-23T22:28:13.883Z,68.83
2023-09-23T22:30:46.827Z,68.93
2023-09-23T22:33:19.303Z,68.93
2023-09-23T22:35:51.889Z,68.84
2023-09-23T22:38:24.067Z,68.90
2023-09-23T22:40:56.925Z,68.76
2023-09-23T22:43:30.606Z,68.92
2023-09-23T22:46:06.978Z,68.94
2023-09-23T22:48:39.347Z,69.12
2023-09-23T22:51:11.552Z,68.91
2023-09-23T22:53:47.175Z,69.02
2023-09-23T22:56:19.804Z,68.93
2023-09-23T22:58:54.289Z,68.94
2023-09-23T23:01:26.614Z,68.93
2023-09-23T23:03:59.127Z,69.12
2023-09-23T23:06:34.968Z,69.01
2023-09-23T23:09:09.100Z,69.14
2023-09-23T23:11:41.379Z,68.97
2023-09-23T23:14:15.811Z,69.18
2023-09-23T23:16:50.736Z,69.24
2023-09-23T23:19:25.228Z,68.93
2023-09-23T23:21:57.317Z,69.16
2023-09-23T23:24:29.551Z,69.03
2023-09-23T23:27:01.636Z,69.24
2023-09-23T23:29:34.261Z,69.44
2023-09-23T23:32:06.621Z,69.32
2023-09-23T23:34:38.731Z,69.42
2023-09-23T23:37:16.146Z,69.12
2023-09-23T23:39:52.105Z,68.99
2023-09-23T23:42:24.304Z,69.31
2023-09-23T23:44:57.869Z,69.25
2023-09-23T23:47:30.470Z,69.06
2023-09-23T23:50:03.712Z,69.04
2023-09-23T23:52:37.768Z,69.23
2023-09-23T23:55:14.114Z,69.09
2023-09-23T23:57:50.107Z,69.06
